Time;durP1;ratioP1;P1;durP2;ratioP2;P2;SDS_P1;SDS_P2;PMS_P1;PMS_P2;Temp;Humidity;BMP_temperature;BMP_pressure;BME280_temperature;BME280_humidity;BME280_pressure;Samples;Min_cycle;Max_cycle;Signal;HPM_P1;HPM_P2
2022/09/07 00:01:38;;;;;;;2.45;1.40;;;20.10;99.90;;;;;;5016219;28;20037;-92
2022/09/07 00:04:04;;;;;;;2.17;1.13;;;20.20;99.90;;;;;;5009116;28;20120;-91
2022/09/07 00:06:30;;;;;;;2.88;1.00;;;20.10;99.90;;;;;;5013843;28;20038;-91
2022/09/07 00:08:55;;;;;;;2.05;1.10;;;20.10;99.90;;;;;;5006734;28;20040;-92
2022/09/07 00:11:21;;;;;;;2.67;1.20;;;20.10;99.90;;;;;;5035813;28;20091;-90
2022/09/07 00:13:48;;;;;;;2.08;1.00;;;20.20;99.90;;;;;;5027873;28;20034;-90
2022/09/07 00:16:23;;;;;;;2.70;1.20;;;20.10;99.90;;;;;;5007506;28;20077;-90
2022/09/07 00:18:49;;;;;;;3.72;1.20;;;20.20;99.90;;;;;;5013603;28;20033;-90
2022/09/07 00:21:16;;;;;;;2.22;1.10;;;20.20;99.90;;;;;;4999918;28;20026;-91
2022/09/07 00:23:42;;;;;;;3.15;1.10;;;20.20;99.90;;;;;;4999394;28;20040;-90
2022/09/07 00:26:11;;;;;;;2.40;0.98;;;20.20;99.90;;;;;;4999458;28;20386;-91
2022/09/07 00:28:37;;;;;;;2.42;1.33;;;20.20;99.90;;;;;;5013479;28;20034;-90
2022/09/07 00:31:07;;;;;;;2.13;1.02;;;20.10;99.90;;;;;;5016192;28;20114;-91
2022/09/07 00:33:33;;;;;;;1.80;1.00;;;20.10;99.90;;;;;;4999216;28;20037;-92
2022/09/07 00:35:58;;;;;;;1.65;0.93;;;20.10;99.90;;;;;;5000102;28;20034;-91
2022/09/07 00:38:24;;;;;;;2.75;0.88;;;20.00;99.90;;;;;;5011887;28;20077;-91
2022/09/07 00:40:49;;;;;;;2.38;1.00;;;20.10;99.90;;;;;;5028748;28;20075;-92
2022/09/07 00:43:46;;;;;;;1.83;0.90;;;20.10;99.90;;;;;;5012084;28;20030;-91
2022/09/07 00:46:15;;;;;;;3.50;1.00;;;20.10;99.90;;;;;;4984463;28;20052;-90
2022/09/07 00:49:00;;;;;;;2.65;0.90;;;20.10;99.90;;;;;;4998969;28;20045;-91
2022/09/07 00:51:44;;;;;;;1.23;0.80;;;20.10;99.90;;;;;;5029052;28;20073;-91
2022/09/07 00:54:20;;;;;;;1.67;0.90;;;20.10;99.90;;;;;;5010388;28;20026;-90
2022/09/07 00:56:47;;;;;;;2.08;0.93;;;20.10;99.90;;;;;;5017927;28;20049;-89
2022/09/07 00:59:16;;;;;;;1.58;0.80;;;20.00;99.90;;;;;;5011508;28;20129;-90
2022/09/07 01:01:43;;;;;;;1.23;0.60;;;20.00;99.90;;;;;;5027107;28;20034;-89
2022/09/07 01:04:08;;;;;;;1.00;0.65;;;20.00;99.90;;;;;;5011907;28;20124;-91
2022/09/07 01:06:36;;;;;;;3.03;0.85;;;20.00;99.90;;;;;;5006896;28;20066;-90
2022/09/07 01:09:06;;;;;;;1.10;0.70;;;20.00;99.90;;;;;;5006800;28;20544;-90
2022/09/07 01:11:33;;;;;;;1.73;0.75;;;20.10;99.90;;;;;;5003331;28;20132;-90
2022/09/07 01:14:01;;;;;;;1.58;0.60;;;20.00;99.90;;;;;;5018282;28;20077;-91
2022/09/07 01:16:51;;;;;;;1.35;0.70;;;19.80;99.90;;;;;;5011374;28;20480;-91
2022/09/07 01:19:25;;;;;;;2.00;0.93;;;19.60;99.90;;;;;;5028509;28;20034;-90
2022/09/07 01:22:15;;;;;;;1.33;0.57;;;19.60;99.90;;;;;;5022789;28;20037;-90
2022/09/07 01:25:18;;;;;;;1.80;0.60;;;19.70;99.90;;;;;;4984747;28;20153;-91
2022/09/07 01:28:02;;;;;;;1.92;0.60;;;19.80;99.90;;;;;;5001617;28;20069;-91
2022/09/07 01:30:33;;;;;;;1.73;0.70;;;19.80;99.90;;;;;;5033881;28;20037;-91
2022/09/07 01:33:24;;;;;;;1.73;0.80;;;19.80;99.90;;;;;;5017599;28;20499;-91
2022/09/07 01:36:17;;;;;;;2.03;0.75;;;19.90;99.90;;;;;;5016704;28;20481;-91
2022/09/07 01:38:53;;;;;;;;;;;19.80;99.90;;;;;;5020895;28;20081;-91
2022/09/07 01:41:31;;;;;;;1.38;0.80;;;19.80;99.90;;;;;;5027700;28;19988;-90
2022/09/07 01:44:09;;;;;;;1.70;0.90;;;19.80;99.90;;;;;;5014413;28;20034;-90
2022/09/07 01:47:04;;;;;;;2.50;0.82;;;19.80;99.90;;;;;;5013780;28;20157;-90
2022/09/07 01:49:41;;;;;;;1.70;0.70;;;19.90;99.90;;;;;;5024237;28;20476;-90
2022/09/07 01:52:15;;;;;;;1.05;0.60;;;19.90;99.90;;;;;;5014116;28;20038;-91
2022/09/07 01:54:58;;;;;;;1.58;0.80;;;19.90;99.90;;;;;;4997822;28;20069;-91
2022/09/07 01:57:38;;;;;;;3.00;0.70;;;19.90;99.90;;;;;;5006686;28;20038;-91
2022/09/07 02:00:13;;;;;;;0.93;0.60;;;19.80;99.90;;;;;;5017357;28;20282;-93
2022/09/07 02:02:47;;;;;;;1.35;0.60;;;19.70;99.90;;;;;;5017607;28;20101;-91
2022/09/07 02:05:38;;;;;;;1.80;0.70;;;19.70;99.90;;;;;;5009439;28;20073;-91
2022/09/07 02:08:19;;;;;;;2.55;0.60;;;19.70;99.90;;;;;;4997907;28;20472;-90
2022/09/07 02:11:01;;;;;;;1.33;0.60;;;19.70;99.90;;;;;;4998238;28;20049;-92
2022/09/07 02:13:37;;;;;;;2.47;0.82;;;19.60;99.90;;;;;;5005542;28;20042;-91
2022/09/07 02:16:23;;;;;;;1.13;0.57;;;19.60;99.90;;;;;;4997393;28;20029;-90
2022/09/07 02:18:54;;;;;;;1.85;0.60;;;19.60;99.90;;;;;;5011347;28;20026;-91
2022/09/07 02:21:26;;;;;;;2.63;0.85;;;19.60;99.90;;;;;;4997423;28;20080;-91
2022/09/07 02:24:08;;;;;;;2.10;0.73;;;19.60;99.90;;;;;;5012461;28;20065;-91
2022/09/07 02:26:38;;;;;;;0.82;0.50;;;19.70;99.90;;;;;;5010418;28;20046;-91
2022/09/07 02:29:04;;;;;;;2.50;0.60;;;19.70;99.90;;;;;;5016630;28;20459;-91
2022/09/07 02:31:30;;;;;;;1.45;0.80;;;19.70;99.90;;;;;;5010546;28;20122;-91
2022/09/07 02:33:56;;;;;;;1.40;0.60;;;19.70;99.90;;;;;;5013760;28;20058;-91
2022/09/07 02:36:25;;;;;;;1.85;0.90;;;19.70;99.90;;;;;;5004816;28;20025;-92
2022/09/07 02:38:53;;;;;;;1.77;0.82;;;19.70;99.90;;;;;;5010759;28;20038;-91
2022/09/07 02:41:30;;;;;;;0.70;0.50;;;19.70;99.90;;;;;;5013901;28;20030;-91
2022/09/07 02:43:56;;;;;;;1.70;0.75;;;19.80;99.90;;;;;;5010302;28;20522;-91
2022/09/07 02:46:48;;;;;;;0.98;0.50;;;19.80;99.90;;;;;;5017314;28;20084;-90
2022/09/07 02:49:31;;;;;;;1.08;0.70;;;19.80;99.90;;;;;;5011472;28;20046;-91
2022/09/07 02:52:06;;;;;;;1.08;0.65;;;19.80;99.90;;;;;;5022771;28;20151;-93
2022/09/07 02:54:41;;;;;;;1.48;0.50;;;19.70;99.90;;;;;;5018767;28;20042;-92
2022/09/07 02:57:29;;;;;;;1.10;0.50;;;19.80;99.90;;;;;;5019998;28;20042;-92
2022/09/07 03:00:05;;;;;;;2.22;0.50;;;19.80;99.90;;;;;;5012166;28;20508;-92
2022/09/07 03:02:56;;;;;;;1.13;0.50;;;19.70;99.90;;;;;;5026006;28;20041;-92
2022/09/07 03:05:24;;;;;;;1.90;0.50;;;19.70;99.90;;;;;;5009058;28;20168;-92
2022/09/07 03:08:08;;;;;;;1.23;0.55;;;19.70;99.90;;;;;;5033640;28;20041;-92
2022/09/07 03:10:38;;;;;;;0.60;0.40;;;19.70;99.90;;;;;;4996989;28;20034;-94
2022/09/07 03:13:03;;;;;;;1.55;0.60;;;19.70;99.90;;;;;;5006040;28;20136;-92
2022/09/07 03:15:29;;;;;;;1.70;0.60;;;19.70;99.90;;;;;;4999951;28;20443;-91
2022/09/07 03:17:55;;;;;;;2.38;0.77;;;19.80;99.90;;;;;;5016819;28;20029;-92
2022/09/07 03:20:22;;;;;;;1.02;0.47;;;19.80;99.90;;;;;;5016947;28;20057;-91
2022/09/07 03:22:49;;;;;;;1.20;0.55;;;19.80;99.90;;;;;;5016773;28;20036;-92
2022/09/07 03:25:15;;;;;;;1.65;0.60;;;19.80;99.90;;;;;;5009729;28;20034;-92
2022/09/07 03:27:41;;;;;;;0.98;0.60;;;19.80;99.90;;;;;;4996673;28;20037;-92
2022/09/07 03:30:09;;;;;;;2.42;0.88;;;19.80;99.90;;;;;;5008945;28;20026;-92
2022/09/07 03:32:37;;;;;;;1.25;0.70;;;19.80;99.90;;;;;;5016116;28;20026;-92
2022/09/07 03:35:06;;;;;;;1.05;0.60;;;19.80;99.90;;;;;;5016842;28;20549;-92
2022/09/07 03:37:34;;;;;;;2.15;0.70;;;19.80;99.90;;;;;;5034046;28;20034;-92
2022/09/07 03:40:00;;;;;;;1.38;0.52;;;19.80;99.90;;;;;;5009170;28;20116;-93
2022/09/07 03:42:25;;;;;;;1.52;0.90;;;19.80;99.90;;;;;;5014572;28;20148;-91
2022/09/07 03:44:51;;;;;;;0.93;0.60;;;19.80;99.90;;;;;;5023716;28;20392;-91
2022/09/07 03:47:17;;;;;;;1.80;0.70;;;19.80;99.90;;;;;;5013344;28;20049;-91
2022/09/07 03:49:43;;;;;;;1.40;0.82;;;19.80;99.90;;;;;;5007403;28;20083;-91
2022/09/07 03:52:09;;;;;;;1.10;0.60;;;19.80;99.90;;;;;;5020196;28;20025;-93
2022/09/07 03:54:34;;;;;;;0.98;0.77;;;19.80;99.90;;;;;;5023380;28;20030;-91
2022/09/07 03:57:00;;;;;;;1.80;0.70;;;19.80;99.90;;;;;;5020376;28;20028;-90
2022/09/07 03:59:26;;;;;;;1.77;0.80;;;19.80;99.90;;;;;;5018700;28;20087;-92
2022/09/07 04:01:52;;;;;;;0.52;0.45;;;19.80;99.90;;;;;;5000077;28;20030;-92
2022/09/07 04:04:17;;;;;;;1.40;0.70;;;19.80;99.90;;;;;;5012835;28;20044;-92
2022/09/07 04:06:43;;;;;;;1.23;0.63;;;19.60;99.90;;;;;;5019166;28;20082;-92
2022/09/07 04:09:12;;;;;;;1.95;0.60;;;19.50;99.90;;;;;;5013101;28;20030;-91
2022/09/07 04:11:39;;;;;;;2.08;0.82;;;19.40;99.90;;;;;;5023200;28;20041;-91
2022/09/07 04:14:05;;;;;;;0.95;0.65;;;19.50;99.90;;;;;;5018650;28;20116;-92
2022/09/07 04:16:31;;;;;;;1.73;0.80;;;19.50;99.90;;;;;;5012676;28;20031;-93
2022/09/07 04:18:57;;;;;;;3.38;0.80;;;19.50;99.90;;;;;;5015934;28;20029;-92
2022/09/07 04:21:26;;;;;;;1.67;0.77;;;19.40;99.90;;;;;;5009244;28;20025;-92
2022/09/07 04:23:52;;;;;;;3.00;1.10;;;19.40;99.90;;;;;;5019302;28;20029;-90
2022/09/07 04:26:21;;;;;;;2.42;0.70;;;19.40;99.90;;;;;;5012882;28;20496;-91
2022/09/07 04:28:47;;;;;;;1.77;0.70;;;19.50;99.90;;;;;;5030268;28;20064;-91
2022/09/07 04:31:14;;;;;;;1.42;0.70;;;19.40;99.90;;;;;;4999906;28;20054;-91
2022/09/07 04:33:41;;;;;;;1.85;0.90;;;19.40;99.90;;;;;;4999404;28;20124;-90
2022/09/07 04:36:07;;;;;;;2.75;1.10;;;19.30;99.90;;;;;;5012160;28;20057;-91
2022/09/07 04:38:33;;;;;;;1.58;0.80;;;19.20;99.90;;;;;;5006920;28;20030;-91
2022/09/07 04:41:08;;;;;;;1.95;0.80;;;19.10;99.90;;;;;;5012957;28;20029;-93
2022/09/07 04:43:34;;;;;;;1.65;0.90;;;19.10;99.90;;;;;;4996299;28;20046;-89
2022/09/07 04:46:20;;;;;;;2.72;1.33;;;19.10;99.90;;;;;;5015065;28;20185;-93
2022/09/07 04:48:57;;;;;;;1.60;1.10;;;19.10;99.90;;;;;;4995831;28;20038;-91
2022/09/07 04:51:25;;;;;;;2.33;1.17;;;19.00;99.90;;;;;;4994323;28;20673;-92
2022/09/07 04:54:05;;;;;;;2.50;1.20;;;19.00;99.90;;;;;;5009477;28;20129;-93
2022/09/07 04:56:34;;;;;;;2.22;1.38;;;19.10;99.90;;;;;;5014415;28;20037;-91
2022/09/07 04:59:27;;;;;;;2.47;1.33;;;19.10;99.90;;;;;;5002450;28;20168;-92
2022/09/07 05:01:56;;;;;;;3.30;1.50;;;19.20;99.90;;;;;;4978930;28;20038;-92
2022/09/07 05:04:22;;;;;;;2.85;1.48;;;19.20;99.90;;;;;;5014279;28;20049;-92
2022/09/07 05:06:47;;;;;;;1.95;1.45;;;19.20;99.90;;;;;;5011998;28;20376;-92
2022/09/07 05:09:13;;;;;;;2.78;1.48;;;19.10;99.90;;;;;;4992700;28;20491;-91
2022/09/07 05:11:39;;;;;;;2.05;1.60;;;19.00;99.90;;;;;;4998042;28;20397;-93
2022/09/07 05:14:20;;;;;;;2.88;1.70;;;18.90;99.90;;;;;;5010464;28;20066;-94
2022/09/07 05:16:46;;;;;;;2.65;1.65;;;18.90;99.90;;;;;;5000055;28;20061;-92
2022/09/07 05:19:15;;;;;;;2.53;1.70;;;18.90;99.90;;;;;;4994499;28;20121;-91
2022/09/07 05:21:41;;;;;;;3.72;1.85;;;18.80;99.90;;;;;;5006848;28;20018;-93
2022/09/07 06:17:36;;;;;;;4.78;2.75;;;18.80;99.90;;;;;;1821027;23;20439;-94
2022/09/07 07:05:56;;;;;;;5.47;4.23;;;18.60;99.90;;;;;;4918493;23;20094;-87
2022/09/07 07:08:24;;;;;;;5.80;4.82;;;18.60;99.90;;;;;;4949765;28;20122;-89
2022/09/07 07:10:50;;;;;;;6.47;5.28;;;18.60;99.90;;;;;;4968702;28;20470;-90
2022/09/07 07:13:17;;;;;;;7.90;6.47;;;18.70;99.90;;;;;;4970977;28;20485;-89
2022/09/07 07:15:43;;;;;;;6.72;5.57;;;18.80;99.90;;;;;;4961543;28;20559;-90
2022/09/07 07:18:09;;;;;;;6.93;5.97;;;18.90;99.90;;;;;;4971971;28;20031;-90
2022/09/07 07:20:40;;;;;;;6.57;5.72;;;19.00;99.90;;;;;;4981926;28;20031;-89
2022/09/07 07:23:06;;;;;;;7.70;6.05;;;19.10;99.90;;;;;;4961245;28;20122;-89
2022/09/07 07:25:35;;;;;;;7.60;6.80;;;19.10;99.90;;;;;;4957973;28;20126;-88
2022/09/07 07:28:02;;;;;;;8.48;6.13;;;19.10;99.90;;;;;;4960407;28;20043;-88
2022/09/07 07:30:28;;;;;;;6.07;5.07;;;19.10;99.90;;;;;;4958671;28;20027;-89
2022/09/07 07:32:54;;;;;;;7.55;5.50;;;19.20;99.90;;;;;;4960923;28;20439;-90
2022/09/07 07:35:21;;;;;;;5.88;5.20;;;19.20;99.90;;;;;;4975641;28;20066;-90
2022/09/07 07:37:47;;;;;;;6.53;5.00;;;19.20;99.90;;;;;;4972606;28;20035;-92
2022/09/07 07:40:14;;;;;;;7.32;5.85;;;19.20;99.90;;;;;;4978902;28;20047;-89
2022/09/07 07:42:40;;;;;;;7.22;6.22;;;19.20;99.90;;;;;;4966555;28;20027;-89
2022/09/07 07:45:07;;;;;;;8.50;6.75;;;19.20;99.90;;;;;;4963619;28;20039;-89
2022/09/07 07:47:34;;;;;;;7.90;6.00;;;19.10;99.90;;;;;;4974510;28;20118;-88
2022/09/07 07:50:00;;;;;;;9.38;5.90;;;19.20;99.90;;;;;;4955788;28;20061;-89
2022/09/07 07:52:35;;;;;;;7.72;6.35;;;19.30;99.90;;;;;;4962106;28;20027;-91
2022/09/07 07:55:01;;;;;;;9.55;6.65;;;19.30;99.90;;;;;;4957387;28;20047;-89
2022/09/07 07:57:27;;;;;;;8.80;6.10;;;19.40;99.90;;;;;;4977825;28;20041;-90
2022/09/07 07:59:53;;;;;;;8.20;5.65;;;19.50;99.90;;;;;;4976612;28;20031;-90
2022/09/07 08:02:19;;;;;;;7.90;6.18;;;19.60;99.90;;;;;;4960514;28;20034;-92
2022/09/07 08:04:44;;;;;;;6.30;5.25;;;19.70;99.90;;;;;;4975129;28;20050;-90
2022/09/07 08:07:11;;;;;;;8.43;5.85;;;19.70;99.90;;;;;;4976988;28;20042;-90
2022/09/07 08:09:41;;;;;;;9.10;7.50;;;19.80;99.90;;;;;;4958029;28;20050;-89
2022/09/07 08:12:10;;;;;;;8.32;7.25;;;19.80;99.90;;;;;;4968929;28;20118;-88
2022/09/07 08:14:39;;;;;;;8.05;6.43;;;19.90;99.90;;;;;;4951314;28;20083;-89
2022/09/07 08:17:09;;;;;;;11.02;9.27;;;20.00;99.90;;;;;;4970244;28;20035;-87
2022/09/07 08:19:35;;;;;;;13.25;11.85;;;20.10;99.90;;;;;;4959601;28;20078;-93
2022/09/07 08:22:00;;;;;;;14.88;12.88;;;20.20;99.90;;;;;;4960848;28;20035;-93
2022/09/07 08:24:26;;;;;;;12.00;10.45;;;20.10;99.90;;;;;;4960647;28;20023;-93
2022/09/07 08:26:52;;;;;;;14.68;13.18;;;20.20;99.90;;;;;;4960417;28;20690;-93
2022/09/07 08:29:17;;;;;;;16.10;12.82;;;20.20;99.90;;;;;;4961160;28;20026;-91
2022/09/07 08:31:43;;;;;;;13.57;12.07;;;20.10;99.90;;;;;;4960142;28;20039;-92
2022/09/07 08:34:09;;;;;;;14.32;12.25;;;20.10;99.90;;;;;;4960563;28;20046;-92
2022/09/07 08:36:35;;;;;;;13.32;11.93;;;20.10;99.90;;;;;;4977672;28;20035;-91
2022/09/07 08:39:01;;;;;;;12.05;10.75;;;20.10;99.90;;;;;;4959863;28;20473;-91
2022/09/07 08:41:52;;;;;;;10.45;9.20;;;20.20;99.90;;;;;;4960138;28;20102;-92
2022/09/07 08:44:32;;;;;;;10.73;9.63;;;20.40;99.90;;;;;;4960309;28;20042;-91
2022/09/07 08:47:04;;;;;;;13.25;11.85;;;20.70;99.90;;;;;;4960689;28;20038;-92
2022/09/07 08:49:55;;;;;;;13.35;10.70;;;20.60;99.90;;;;;;4960242;28;20041;-92
2022/09/07 08:52:27;;;;;;;11.55;9.98;;;20.80;99.90;;;;;;4960064;28;20038;-92
2022/09/07 08:55:13;;;;;;;9.88;8.88;;;20.90;99.90;;;;;;4960502;28;20081;-93
2022/09/07 08:57:44;;;;;;;7.60;6.65;;;21.10;99.90;;;;;;4962916;28;20082;-92
2022/09/07 09:00:17;;;;;;;10.95;8.98;;;21.20;99.90;;;;;;4959806;28;20081;-89
